Time;durP1;ratioP1;P1;durP2;ratioP2;P2;SDS_P1;SDS_P2;PMS_P1;PMS_P2;Temp;Humidity;BMP_temperature;BMP_pressure;BME280_temperature;BME280_humidity;BME280_pressure;Samples;Min_cycle;Max_cycle;Signal;HPM_P1;HPM_P2
2023/09/18 00:00:08;;;;;;;23.73;21.23;;;17.00;99.90;;;;;;5096161;28;20058;-25
2023/09/18 00:02:34;;;;;;;25.15;22.58;;;17.00;99.90;;;;;;5095640;28;20044;-26
2023/09/18 00:05:00;;;;;;;24.08;21.58;;;16.90;99.90;;;;;;5096131;28;20044;-25
2023/09/18 00:07:25;;;;;;;24.08;21.05;;;16.90;99.90;;;;;;5095766;28;20043;-25
2023/09/18 00:09:52;;;;;;;26.25;23.55;;;16.90;99.90;;;;;;5095646;28;20040;-25
2023/09/18 00:12:18;;;;;;;23.50;21.02;;;16.90;99.90;;;;;;5095449;28;20040;-24
2023/09/18 00:14:43;;;;;;;23.50;21.23;;;16.90;99.90;;;;;;5095589;28;20077;-25
2023/09/18 00:17:09;;;;;;;22.77;20.35;;;16.90;99.90;;;;;;5095706;28;20115;-25
2023/09/18 00:19:35;;;;;;;25.98;23.35;;;16.90;99.90;;;;;;5095634;28;20051;-25
2023/09/18 00:22:00;;;;;;;24.23;20.83;;;16.90;99.90;;;;;;5095686;28;20043;-26
2023/09/18 00:24:29;;;;;;;26.00;23.35;;;16.90;99.90;;;;;;5095628;28;20036;-25
2023/09/18 00:26:55;;;;;;;25.33;22.98;;;16.90;99.90;;;;;;5095620;28;20044;-25
2023/09/18 00:29:20;;;;;;;27.60;24.77;;;16.90;99.90;;;;;;5093964;28;20043;-25
2023/09/18 00:31:46;;;;;;;28.40;25.15;;;16.90;99.90;;;;;;5095302;28;20089;-25
2023/09/18 00:34:12;;;;;;;30.38;27.20;;;16.90;99.90;;;;;;5094791;28;20035;-26
2023/09/18 00:36:38;;;;;;;32.83;29.63;;;17.00;99.90;;;;;;5095368;28;20440;-25
2023/09/18 00:39:04;;;;;;;30.90;27.70;;;17.00;99.90;;;;;;5095239;28;20040;-25
2023/09/18 00:41:29;;;;;;;26.15;23.38;;;16.90;99.90;;;;;;5095319;28;20036;-25
2023/09/18 00:43:55;;;;;;;31.55;28.23;;;17.00;99.90;;;;;;5095300;28;20036;-25
2023/09/18 00:46:22;;;;;;;28.33;25.38;;;17.00;99.90;;;;;;5095185;28;20042;-25
2023/09/18 00:48:48;;;;;;;32.67;29.33;;;17.00;99.90;;;;;;5095122;28;20036;-23
2023/09/18 00:51:15;;;;;;;28.83;25.85;;;17.00;99.90;;;;;;5094993;28;20112;-24
2023/09/18 00:53:44;;;;;;;34.78;30.80;;;17.10;99.90;;;;;;5094720;28;20036;-23
2023/09/18 00:56:10;;;;;;;31.02;27.80;;;17.10;99.90;;;;;;5095002;28;20036;-26
2023/09/18 00:58:36;;;;;;;29.67;26.58;;;17.10;99.90;;;;;;5095013;28;20067;-25
2023/09/18 01:01:04;;;;;;;30.15;27.13;;;17.10;99.90;;;;;;5094924;28;20032;-25
2023/09/18 01:03:30;;;;;;;32.83;29.42;;;17.10;99.90;;;;;;5094882;28;20043;-26
2023/09/18 01:05:55;;;;;;;35.05;31.42;;;17.10;99.90;;;;;;5093984;28;20048;-25
2023/09/18 01:08:21;;;;;;;27.80;25.05;;;17.10;99.90;;;;;;5094674;28;20039;-26
2023/09/18 01:11:05;;;;;;;30.55;27.38;;;17.10;99.90;;;;;;5094839;28;20036;-28
2023/09/18 01:13:38;;;;;;;29.70;26.80;;;17.10;99.90;;;;;;5094743;28;20125;-25
2023/09/18 01:16:16;;;;;;;29.17;26.08;;;17.10;99.90;;;;;;5094458;28;20028;-25
2023/09/18 01:18:50;;;;;;;29.50;26.48;;;17.10;99.90;;;;;;5094139;28;20047;-24
2023/09/18 01:21:16;;;;;;;;;;;17.10;99.90;;;;;;5095044;28;20039;-26
2023/09/18 01:23:42;;;;;;;31.45;28.20;;;17.10;99.90;;;;;;5094013;28;19916;-27
2023/09/18 01:26:08;;;;;;;33.67;30.10;;;17.10;99.90;;;;;;5094492;28;20050;-25
2023/09/18 01:28:34;;;;;;;30.95;27.80;;;17.00;99.90;;;;;;5094326;28;20063;-25
2023/09/18 01:30:59;;;;;;;30.42;26.63;;;17.10;99.90;;;;;;5094391;28;20036;-26
2023/09/18 01:33:27;;;;;;;29.40;26.50;;;17.00;99.90;;;;;;5093646;28;20048;-25
2023/09/18 01:35:55;;;;;;;30.10;27.10;;;17.10;99.90;;;;;;5094533;28;20510;-25
2023/09/18 01:38:22;;;;;;;31.02;27.27;;;17.10;99.90;;;;;;5094209;28;20507;-25
2023/09/18 01:40:49;;;;;;;30.35;27.27;;;17.00;99.90;;;;;;5094208;28;20061;-25
2023/09/18 01:43:14;;;;;;;31.95;27.58;;;17.00;99.90;;;;;;5094169;28;20071;-25
2023/09/18 01:45:41;;;;;;;28.40;25.63;;;17.00;99.90;;;;;;5093537;28;20402;-25
2023/09/18 01:48:07;;;;;;;31.33;28.23;;;17.00;99.90;;;;;;5093642;28;20051;-25
2023/09/18 01:50:33;;;;;;;31.00;27.75;;;17.00;99.90;;;;;;5094255;28;20044;-25
2023/09/18 01:52:59;;;;;;;30.75;27.77;;;17.00;99.90;;;;;;5094226;28;20502;-25
2023/09/18 01:55:25;;;;;;;30.55;27.45;;;17.10;99.90;;;;;;5094146;28;20036;-25
2023/09/18 01:57:50;;;;;;;29.10;26.35;;;17.00;99.90;;;;;;5093811;28;20492;-25
2023/09/18 02:00:16;;;;;;;29.45;26.40;;;17.10;99.90;;;;;;5093520;28;20073;-25
2023/09/18 02:02:42;;;;;;;27.80;25.08;;;17.00;99.90;;;;;;5093514;28;20077;-26
2023/09/18 02:05:07;;;;;;;29.63;26.63;;;17.10;99.90;;;;;;5093755;28;20043;-25
2023/09/18 02:07:33;;;;;;;28.23;25.42;;;17.10;99.90;;;;;;5093218;28;20050;-26
2023/09/18 02:09:59;;;;;;;28.45;25.67;;;17.10;99.90;;;;;;5093641;28;20040;-27
2023/09/18 02:12:25;;;;;;;31.73;28.40;;;17.10;99.90;;;;;;5093106;28;20233;-25
2023/09/18 02:14:50;;;;;;;29.08;26.13;;;17.10;99.90;;;;;;5092980;28;20040;-26
2023/09/18 02:17:16;;;;;;;27.92;25.05;;;17.10;99.90;;;;;;5090877;28;20040;-26
2023/09/18 02:19:42;;;;;;;25.80;23.38;;;17.10;99.90;;;;;;5084912;28;21316;-31
2023/09/18 02:22:09;;;;;;;26.38;23.77;;;17.10;99.90;;;;;;5079242;28;20043;-30
2023/09/18 02:24:34;;;;;;;26.30;23.67;;;17.00;99.90;;;;;;5087502;28;20036;-30
2023/09/18 02:27:00;;;;;;;27.08;24.48;;;17.10;99.90;;;;;;5081734;28;20545;-29
2023/09/18 02:29:26;;;;;;;26.30;23.52;;;17.10;99.90;;;;;;5086476;28;20503;-30
2023/09/18 02:31:51;;;;;;;27.42;24.45;;;17.00;99.90;;;;;;5084277;28;20044;-30
2023/09/18 02:34:19;;;;;;;27.48;24.77;;;17.00;99.90;;;;;;5087488;28;20143;-31
2023/09/18 02:36:44;;;;;;;29.58;25.70;;;17.00;99.90;;;;;;5088320;28;20532;-30
2023/09/18 02:39:10;;;;;;;25.50;23.00;;;17.10;99.90;;;;;;5088699;28;20115;-30
2023/09/18 02:41:35;;;;;;;26.23;23.45;;;17.10;99.90;;;;;;5090020;28;20036;-31
2023/09/18 02:44:01;;;;;;;24.65;22.13;;;17.10;99.90;;;;;;5084395;28;20036;-30
2023/09/18 02:46:27;;;;;;;26.70;24.10;;;17.10;99.90;;;;;;5090472;28;20502;-29
2023/09/18 02:48:52;;;;;;;26.50;23.67;;;17.10;99.90;;;;;;5096242;28;20119;-30
2023/09/18 02:51:18;;;;;;;28.17;25.30;;;17.10;99.90;;;;;;5089278;28;20109;-30
2023/09/18 02:53:44;;;;;;;25.52;22.98;;;17.10;99.90;;;;;;5081648;28;20036;-30
2023/09/18 02:56:09;;;;;;;22.67;20.27;;;17.10;99.90;;;;;;5091733;28;20027;-30
2023/09/18 02:58:35;;;;;;;24.38;21.73;;;17.10;99.90;;;;;;5082748;28;20101;-29
2023/09/18 03:01:03;;;;;;;24.90;22.45;;;17.10;99.90;;;;;;5082168;28;20040;-31
2023/09/18 03:03:29;;;;;;;25.50;22.90;;;17.10;99.90;;;;;;5086449;28;20119;-31
2023/09/18 03:06:01;;;;;;;24.42;21.83;;;17.10;99.90;;;;;;5089893;28;20115;-29
2023/09/18 03:08:28;;;;;;;23.13;20.90;;;17.10;99.90;;;;;;5088590;28;20032;-32
2023/09/18 03:10:54;;;;;;;24.88;22.55;;;17.10;99.90;;;;;;5086731;28;20032;-31
2023/09/18 03:13:22;;;;;;;24.25;21.67;;;17.10;99.90;;;;;;5089792;28;20044;-30
2023/09/18 03:15:47;;;;;;;25.13;22.50;;;17.10;99.90;;;;;;5086183;28;20032;-30
2023/09/18 03:18:13;;;;;;;23.42;20.83;;;17.10;99.90;;;;;;5094016;28;20096;-31
2023/09/18 03:20:39;;;;;;;23.20;20.83;;;17.10;99.90;;;;;;5089111;28;20425;-33
2023/09/18 03:23:05;;;;;;;24.02;21.55;;;17.10;99.90;;;;;;5090107;28;20122;-30
2023/09/18 03:25:30;;;;;;;21.65;19.38;;;17.10;99.90;;;;;;5090900;28;20487;-30
2023/09/18 03:27:57;;;;;;;22.02;19.33;;;17.10;99.90;;;;;;5087764;28;20131;-31
2023/09/18 03:30:24;;;;;;;21.27;19.00;;;17.10;99.90;;;;;;5090885;28;20043;-31
2023/09/18 03:32:50;;;;;;;21.73;19.52;;;17.20;99.90;;;;;;5084779;28;20070;-31
2023/09/18 03:35:19;;;;;;;21.17;18.98;;;17.20;99.90;;;;;;5089347;28;20043;-30
2023/09/18 03:37:52;;;;;;;22.45;20.17;;;17.20;99.90;;;;;;5091624;28;20031;-32
2023/09/18 03:40:19;;;;;;;20.33;18.27;;;17.20;99.90;;;;;;5078315;28;20093;-31
2023/09/18 03:42:45;;;;;;;22.98;19.88;;;17.20;99.90;;;;;;5081153;28;20040;-28
2023/09/18 03:45:12;;;;;;;21.25;19.05;;;17.20;99.90;;;;;;5086753;28;20491;-30
2023/09/18 03:47:41;;;;;;;21.30;18.77;;;17.20;99.90;;;;;;5082635;28;20043;-33
2023/09/18 03:50:10;;;;;;;19.55;17.48;;;17.30;99.90;;;;;;5077348;28;20119;-30
2023/09/18 03:52:38;;;;;;;20.02;17.92;;;17.30;99.90;;;;;;5082637;28;20036;-30
2023/09/18 03:55:04;;;;;;;19.42;17.08;;;17.30;99.90;;;;;;5082531;28;20052;-30
2023/09/18 03:57:30;;;;;;;19.27;17.38;;;17.30;99.90;;;;;;5085023;28;20471;-30
2023/09/18 03:59:55;;;;;;;19.77;17.67;;;17.40;99.90;;;;;;5085279;28;20142;-30
2023/09/18 04:02:24;;;;;;;19.60;17.58;;;17.40;99.90;;;;;;5087135;28;20067;-29
2023/09/18 04:04:50;;;;;;;18.60;16.63;;;17.40;99.90;;;;;;5084145;28;20496;-31
2023/09/18 04:07:16;;;;;;;21.17;18.17;;;17.30;99.90;;;;;;5087596;28;20072;-30
2023/09/18 04:09:42;;;;;;;18.02;16.17;;;17.30;99.90;;;;;;5084002;28;20063;-31
2023/09/18 04:12:08;;;;;;;19.27;17.27;;;17.30;99.90;;;;;;5088267;28;20036;-33
2023/09/18 04:14:34;;;;;;;20.00;16.88;;;17.30;99.90;;;;;;5085424;28;20043;-29
2023/09/18 04:17:00;;;;;;;18.17;16.27;;;17.30;99.90;;;;;;5094253;28;20286;-31
2023/09/18 04:19:26;;;;;;;17.15;15.32;;;17.30;99.90;;;;;;5087813;28;20070;-30
2023/09/18 04:21:52;;;;;;;19.33;16.40;;;17.30;99.90;;;;;;5094400;28;20483;-30
2023/09/18 04:24:18;;;;;;;18.25;16.50;;;17.30;99.90;;;;;;5087779;28;20097;-32
2023/09/18 04:26:43;;;;;;;20.13;17.92;;;17.30;99.90;;;;;;5088922;28;20042;-31
2023/09/18 04:29:09;;;;;;;18.20;16.27;;;17.30;99.90;;;;;;5089843;28;20070;-30
2023/09/18 04:31:35;;;;;;;18.08;16.30;;;17.40;99.90;;;;;;5090105;28;20483;-30
2023/09/18 04:34:00;;;;;;;18.33;16.42;;;17.40;99.90;;;;;;5085474;28;20032;-31
2023/09/18 04:36:26;;;;;;;17.58;15.88;;;17.40;99.90;;;;;;5088466;28;20044;-30
2023/09/18 04:38:52;;;;;;;20.95;16.23;;;17.40;99.90;;;;;;5088140;28;20075;-33
2023/09/18 04:41:17;;;;;;;19.67;17.58;;;17.40;99.90;;;;;;5088725;28;20456;-32
2023/09/18 04:43:43;;;;;;;19.33;15.60;;;17.40;99.90;;;;;;5097361;28;20058;-31
2023/09/18 04:46:09;;;;;;;15.65;14.18;;;17.40;99.90;;;;;;5090152;28;20085;-30
2023/09/18 04:48:34;;;;;;;17.10;15.43;;;17.40;99.90;;;;;;5096473;28;20032;-30
2023/09/18 04:51:01;;;;;;;19.08;15.65;;;17.50;99.90;;;;;;5078895;28;20055;-31
2023/09/18 04:53:31;;;;;;;17.60;15.80;;;17.50;99.90;;;;;;5084932;28;20126;-30
2023/09/18 04:55:56;;;;;;;17.85;15.98;;;17.50;99.90;;;;;;5097328;28;20043;-29
2023/09/18 04:58:22;;;;;;;19.92;16.75;;;17.50;99.90;;;;;;5090551;28;20078;-29
2023/09/18 05:00:58;;;;;;;19.25;17.23;;;17.60;99.90;;;;;;5082862;28;20028;-30
2023/09/18 05:03:24;;;;;;;18.75;16.90;;;17.60;99.90;;;;;;5086953;28;20040;-31
2023/09/18 05:06:00;;;;;;;18.77;16.50;;;17.70;99.90;;;;;;5088260;28;20546;-29
2023/09/18 05:08:25;;;;;;;20.92;17.00;;;17.70;99.90;;;;;;5090314;28;20424;-30
2023/09/18 05:10:51;;;;;;;19.08;16.33;;;17.80;99.90;;;;;;5092008;28;20054;-31
2023/09/18 05:13:17;;;;;;;16.20;14.48;;;17.80;99.90;;;;;;5084747;28;20043;-29
2023/09/18 05:15:42;;;;;;;17.65;14.98;;;17.80;99.90;;;;;;5087707;28;20086;-30
2023/09/18 05:18:08;;;;;;;17.23;15.38;;;17.90;99.90;;;;;;5082983;28;20032;-30
2023/09/18 05:20:34;;;;;;;15.93;14.23;;;17.90;99.90;;;;;;5086431;28;20097;-31
2023/09/18 05:23:01;;;;;;;18.23;14.40;;;17.90;99.90;;;;;;5091958;28;20093;-30
2023/09/18 05:25:31;;;;;;;16.02;13.55;;;18.00;99.90;;;;;;5095799;28;20043;-31
2023/09/18 05:27:59;;;;;;;16.40;13.77;;;18.00;99.90;;;;;;5090512;28;20039;-32
2023/09/18 05:30:34;;;;;;;16.45;14.73;;;18.00;99.90;;;;;;5095109;28;20032;-29
2023/09/18 05:33:07;;;;;;;15.93;13.95;;;18.00;99.90;;;;;;5083993;28;20036;-31
2023/09/18 05:35:41;;;;;;;16.20;14.48;;;18.00;99.90;;;;;;5087747;28;20072;-30
2023/09/18 05:38:09;;;;;;;15.38;13.75;;;18.00;99.90;;;;;;5087177;28;20483;-29
2023/09/18 05:40:35;;;;;;;16.30;13.43;;;18.00;99.90;;;;;;5090957;28;20036;-30
2023/09/18 05:43:01;;;;;;;16.88;13.57;;;18.00;99.90;;;;;;5083996;28;20043;-32
2023/09/18 05:45:27;;;;;;;15.70;13.98;;;18.00;99.90;;;;;;5089544;28;20426;-31
2023/09/18 05:47:54;;;;;;;16.08;13.20;;;18.10;99.90;;;;;;5086695;28;20044;-31
2023/09/18 05:50:20;;;;;;;15.38;13.77;;;18.10;99.90;;;;;;5085851;28;20495;-31
2023/09/18 05:52:47;;;;;;;15.73;13.95;;;18.10;99.90;;;;;;5088372;28;20036;-30
2023/09/18 05:55:15;;;;;;;14.70;13.13;;;18.10;99.90;;;;;;5085471;28;20124;-29
2023/09/18 05:57:40;;;;;;;14.10;12.50;;;18.10;99.90;;;;;;5088292;28;20036;-31
2023/09/18 06:00:07;;;;;;;15.40;13.68;;;18.20;99.90;;;;;;5086780;28;20265;-30
2023/09/18 06:02:32;;;;;;;14.25;12.55;;;18.20;99.90;;;;;;5089415;28;20132;-28
2023/09/18 06:05:00;;;;;;;16.58;13.63;;;18.20;99.90;;;;;;5098903;28;20115;-29
2023/09/18 06:07:29;;;;;;;14.60;12.77;;;18.20;99.90;;;;;;5098266;28;20035;-28
2023/09/18 06:09:57;;;;;;;14.02;12.48;;;18.30;99.90;;;;;;5085113;28;20422;-30
2023/09/18 06:12:22;;;;;;;16.58;13.52;;;18.30;99.90;;;;;;5081325;28;20036;-30
2023/09/18 06:14:49;;;;;;;16.38;12.70;;;18.40;99.90;;;;;;5083746;28;20176;-31
2023/09/18 06:17:15;;;;;;;14.25;12.00;;;18.40;99.90;;;;;;5088202;28;20399;-30
2023/09/18 06:19:41;;;;;;;14.02;12.32;;;18.40;99.90;;;;;;5088034;28;20036;-29
2023/09/18 06:22:08;;;;;;;14.10;11.68;;;18.50;99.90;;;;;;5090475;28;20067;-31
2023/09/18 06:24:36;;;;;;;15.45;12.15;;;18.50;99.90;;;;;;5084780;28;20040;-30
2023/09/18 06:27:04;;;;;;;17.00;11.13;;;18.60;99.90;;;;;;5085739;28;20455;-31
2023/09/18 06:29:30;;;;;;;13.02;10.80;;;18.60;99.90;;;;;;5083432;28;20134;-33
2023/09/18 06:31:56;;;;;;;11.32;9.93;;;18.70;99.90;;;;;;5090819;28;20048;-30
2023/09/18 06:34:22;;;;;;;11.35;9.60;;;18.80;99.90;;;;;;5084257;28;20066;-31
2023/09/18 06:36:47;;;;;;;11.35;10.25;;;18.80;99.90;;;;;;5086767;28;20032;-31
2023/09/18 06:39:14;;;;;;;10.63;9.30;;;18.90;99.90;;;;;;5085359;28;20162;-32
2023/09/18 06:41:39;;;;;;;17.05;10.45;;;18.90;99.90;;;;;;5088984;28;20532;-31
2023/09/18 06:44:05;;;;;;;11.68;9.68;;;19.00;99.90;;;;;;5083193;28;20115;-32
2023/09/18 06:46:31;;;;;;;12.32;9.57;;;19.00;99.90;;;;;;5085629;28;20456;-31
2023/09/18 06:48:57;;;;;;;12.20;10.45;;;19.10;99.90;;;;;;5087757;28;20058;-30
2023/09/18 06:51:27;;;;;;;12.35;10.95;;;19.10;99.90;;;;;;5084796;28;20101;-31
2023/09/18 06:53:53;;;;;;;23.00;13.65;;;19.20;99.90;;;;;;5090588;28;20044;-31
2023/09/18 06:56:19;;;;;;;22.30;15.18;;;19.10;99.90;;;;;;5085381;28;20036;-30
2023/09/18 06:58:47;;;;;;;21.10;15.52;;;19.00;99.90;;;;;;5092121;28;20402;-29
2023/09/18 07:01:15;;;;;;;22.02;15.32;;;18.90;99.90;;;;;;5085067;28;20040;-30
2023/09/18 07:03:40;;;;;;;19.70;16.70;;;18.80;99.90;;;;;;5087634;28;20036;-30
2023/09/18 07:06:06;;;;;;;17.17;15.38;;;18.80;99.90;;;;;;5086685;28;20395;-31
2023/09/18 07:08:32;;;;;;;19.80;16.35;;;18.70;99.90;;;;;;5081633;28;20067;-31
2023/09/18 07:10:59;;;;;;;22.45;17.15;;;18.70;99.90;;;;;;5091531;28;20043;-30
2023/09/18 07:13:24;;;;;;;19.10;16.90;;;18.70;99.90;;;;;;5087072;28;20040;-31
2023/09/18 07:15:50;;;;;;;20.98;17.10;;;18.70;99.90;;;;;;5083955;28;20178;-30
2023/09/18 07:18:16;;;;;;;19.77;17.67;;;18.70;99.90;;;;;;5088648;28;20035;-30
2023/09/18 07:20:43;;;;;;;19.80;15.85;;;18.80;99.90;;;;;;5087605;28;20411;-30
2023/09/18 07:23:09;;;;;;;21.90;17.17;;;18.80;99.90;;;;;;5086084;28;20039;-31
2023/09/18 07:25:38;;;;;;;19.80;16.85;;;18.90;99.90;;;;;;5089184;28;20433;-31
2023/09/18 07:28:08;;;;;;;20.42;17.20;;;18.90;99.90;;;;;;5090357;28;20118;-31
2023/09/18 07:30:34;;;;;;;20.38;17.40;;;19.00;99.90;;;;;;5087104;28;20055;-30
2023/09/18 07:33:00;;;;;;;19.70;17.58;;;19.00;99.90;;;;;;5086001;28;20068;-31
2023/09/18 07:35:26;;;;;;;18.95;16.92;;;19.10;99.90;;;;;;5086887;28;20051;-31
2023/09/18 07:37:51;;;;;;;20.38;17.95;;;19.10;99.90;;;;;;5085835;28;20036;-31
2023/09/18 07:40:17;;;;;;;20.60;17.50;;;19.10;99.90;;;;;;5084412;28;20028;-32
2023/09/18 07:42:46;;;;;;;18.77;16.73;;;19.10;99.90;;;;;;5082188;28;20044;-30
2023/09/18 07:45:12;;;;;;;20.95;18.77;;;19.20;99.90;;;;;;5088686;28;20036;-32
2023/09/18 07:47:38;;;;;;;21.38;18.20;;;19.20;99.90;;;;;;5088295;28;20039;-31
2023/09/18 07:50:05;;;;;;;22.25;19.63;;;19.20;99.90;;;;;;5092844;28;20032;-31
2023/09/18 07:52:31;;;;;;;20.45;18.38;;;19.20;99.90;;;;;;5088154;28;20487;-31
2023/09/18 07:55:00;;;;;;;21.00;18.38;;;19.20;99.90;;;;;;5092988;28;20036;-31
2023/09/18 07:57:28;;;;;;;19.52;17.45;;;19.30;99.90;;;;;;5086129;28;20036;-30
2023/09/18 07:59:54;;;;;;;21.20;16.17;;;19.30;99.90;;;;;;5084398;28;20507;-30
2023/09/18 08:02:21;;;;;;;18.27;16.30;;;19.30;99.90;;;;;;5085296;28;20028;-31
2023/09/18 08:04:47;;;;;;;17.55;15.50;;;19.40;99.90;;;;;;5087793;28;20529;-31
2023/09/18 08:07:12;;;;;;;18.42;16.05;;;19.40;99.90;;;;;;5089056;28;20039;-31
2023/09/18 08:09:38;;;;;;;18.83;16.30;;;19.40;99.90;;;;;;5086746;28;20551;-30
2023/09/18 08:12:05;;;;;;;18.50;16.50;;;19.50;99.90;;;;;;5080781;28;20090;-30
2023/09/18 08:14:31;;;;;;;16.77;14.95;;;19.50;99.90;;;;;;5082099;28;20495;-33
2023/09/18 08:16:58;;;;;;;16.23;14.15;;;19.50;99.90;;;;;;5084858;28;20115;-31
2023/09/18 08:19:26;;;;;;;16.58;14.43;;;19.50;99.90;;;;;;5084812;28;20052;-32
2023/09/18 08:21:54;;;;;;;18.00;14.63;;;19.50;99.90;;;;;;5082938;28;20115;-31
2023/09/18 08:24:20;;;;;;;17.75;15.95;;;19.50;99.90;;;;;;5086218;28;20071;-32
2023/09/18 08:26:46;;;;;;;17.95;15.85;;;19.50;99.90;;;;;;5092567;28;20111;-30
2023/09/18 08:29:12;;;;;;;22.20;16.10;;;19.50;99.90;;;;;;5091673;28;20447;-31
2023/09/18 08:31:37;;;;;;;19.98;16.60;;;19.50;99.90;;;;;;5090226;28;20495;-30
2023/09/18 08:34:03;;;;;;;20.42;18.30;;;19.60;99.90;;;;;;5086126;28;20038;-31
2023/09/18 08:36:30;;;;;;;22.13;17.73;;;19.60;99.90;;;;;;5092636;28;20115;-32
2023/09/18 08:38:56;;;;;;;20.50;18.30;;;19.60;99.90;;;;;;5089639;28;20032;-32
2023/09/18 08:41:26;;;;;;;20.52;17.35;;;19.70;99.90;;;;;;5092631;28;20039;-31
2023/09/18 08:43:56;;;;;;;19.83;17.73;;;19.70;99.90;;;;;;5089802;28;20043;-32
2023/09/18 08:46:22;;;;;;;21.27;17.33;;;19.70;99.90;;;;;;5095117;28;20067;-31
2023/09/18 08:48:49;;;;;;;19.40;17.38;;;19.80;99.90;;;;;;5091263;28;20841;-33
2023/09/18 08:51:17;;;;;;;20.02;16.67;;;19.80;99.90;;;;;;5085592;28;20124;-31
2023/09/18 08:53:43;;;;;;;19.17;16.95;;;19.80;99.90;;;;;;5094178;28;20499;-33
2023/09/18 08:56:10;;;;;;;19.45;16.70;;;19.90;99.90;;;;;;5103454;27;20047;-27
2023/09/18 08:58:39;;;;;;;18.38;16.45;;;19.90;99.90;;;;;;5090653;28;20047;-26
2023/09/18 09:01:09;;;;;;;17.88;15.90;;;20.00;99.90;;;;;;5089418;28;20093;-28
2023/09/18 09:03:36;;;;;;;17.60;15.85;;;20.10;99.90;;;;;;5086091;28;20123;-29
2023/09/18 09:06:02;;;;;;;17.83;15.93;;;20.10;99.90;;;;;;5082343;28;20550;-27
2023/09/18 09:08:29;;;;;;;20.02;15.70;;;20.10;99.90;;;;;;5089904;28;20124;-27
2023/09/18 09:10:57;;;;;;;17.15;15.13;;;20.20;99.90;;;;;;5090121;28;20123;-27
2023/09/18 09:13:26;;;;;;;17.80;15.20;;;20.10;99.90;;;;;;5089566;28;20079;-27
2023/09/18 09:15:55;;;;;;;17.25;15.10;;;20.20;99.90;;;;;;5086137;28;20036;-27
2023/09/18 09:18:23;;;;;;;18.58;15.85;;;20.20;99.90;;;;;;5086848;28;20112;-29
2023/09/18 09:21:04;;;;;;;18.00;14.60;;;20.30;99.90;;;;;;5084779;28;20487;-27
2023/09/18 09:23:53;;;;;;;15.27;13.80;;;20.40;99.90;;;;;;5087042;28;20543;-27
2023/09/18 09:26:22;;;;;;;17.15;13.68;;;20.40;99.90;;;;;;5080760;28;20115;-27
2023/09/18 09:28:48;;;;;;;16.73;14.52;;;20.40;99.90;;;;;;5084151;28;20047;-29
2023/09/18 09:31:30;;;;;;;15.95;13.15;;;20.50;99.90;;;;;;5079614;28;20495;-27
2023/09/18 09:33:56;;;;;;;15.32;13.35;;;20.50;99.90;;;;;;5086831;28;20048;-27
2023/09/18 09:36:24;;;;;;;14.05;12.35;;;20.60;99.90;;;;;;5083823;28;20087;-27
2023/09/18 09:38:56;;;;;;;14.63;12.32;;;20.60;99.90;;;;;;5087861;28;20032;-29
2023/09/18 09:41:21;;;;;;;13.40;12.00;;;20.70;99.90;;;;;;5083322;28;20040;-27
2023/09/18 09:43:47;;;;;;;15.35;12.45;;;20.90;99.90;;;;;;5089368;28;20084;-27
2023/09/18 09:46:17;;;;;;;13.05;11.68;;;21.10;99.90;;;;;;5089047;28;20040;-27
2023/09/18 09:49:01;;;;;;;12.23;10.95;;;21.20;99.90;;;;;;5086428;28;20388;-27
2023/09/18 09:51:27;;;;;;;11.77;10.57;;;21.40;99.90;;;;;;5087103;28;20497;-27
2023/09/18 09:53:53;;;;;;;12.05;9.48;;;21.40;99.90;;;;;;5088728;28;20399;-27
2023/09/18 09:56:19;;;;;;;11.20;10.13;;;21.40;99.90;;;;;;5089104;28;20028;-30
2023/09/18 09:58:59;;;;;;;11.18;9.25;;;21.40;99.90;;;;;;5085614;28;20032;-31
2023/09/18 10:01:27;;;;;;;9.10;8.13;;;21.50;99.90;;;;;;5088879;28;20090;-29
2023/09/18 10:03:55;;;;;;;9.10;8.25;;;21.50;99.90;;;;;;5083110;28;20033;-27
2023/09/18 10:06:21;;;;;;;9.00;7.47;;;21.50;99.90;;;;;;5084565;28;20499;-28
2023/09/18 10:08:47;;;;;;;11.20;8.20;;;21.40;99.90;;;;;;5087568;28;20089;-28
2023/09/18 10:11:16;;;;;;;9.73;7.78;;;21.40;99.90;;;;;;5085532;28;20371;-27
2023/09/18 10:13:56;;;;;;;8.27;7.57;;;21.40;99.90;;;;;;5087799;28;20487;-28
2023/09/18 10:16:27;;;;;;;7.97;7.18;;;21.50;99.90;;;;;;5088040;28;20512;-27
2023/09/18 10:19:14;;;;;;;8.13;7.18;;;21.60;99.90;;;;;;5084957;28;20075;-27
2023/09/18 10:22:10;;;;;;;9.45;7.38;;;21.70;99.90;;;;;;5083997;28;20040;-28
2023/09/18 10:24:38;;;;;;;7.20;6.50;;;21.80;99.90;;;;;;5087582;28;20043;-27
2023/09/18 10:27:06;;;;;;;9.07;7.07;;;21.80;99.90;;;;;;5089430;27;20096;-27
2023/09/18 10:29:36;;;;;;;6.55;5.80;;;21.90;99.90;;;;;;5093468;28;20036;-30
2023/09/18 10:32:07;;;;;;;7.50;6.60;;;22.10;99.90;;;;;;5086315;28;20036;-29
2023/09/18 10:34:34;;;;;;;7.82;6.07;;;22.10;99.90;;;;;;5087641;28;20082;-28
2023/09/18 10:37:01;;;;;;;8.07;6.15;;;22.20;99.90;;;;;;5093990;28;20024;-30
2023/09/18 10:39:29;;;;;;;9.00;6.15;;;22.50;99.90;;;;;;5088582;28;20545;-28
2023/09/18 10:41:57;;;;;;;6.25;5.65;;;22.80;99.90;;;;;;5093853;28;20074;-30
2023/09/18 10:44:23;;;;;;;6.03;5.38;;;22.90;99.90;;;;;;5085778;28;20168;-29
2023/09/18 10:46:51;;;;;;;5.97;5.43;;;23.10;99.90;;;;;;5095282;28;20357;-28
2023/09/18 10:49:18;;;;;;;6.00;5.35;;;23.60;99.90;;;;;;5092626;28;20032;-28
2023/09/18 10:51:45;;;;;;;9.52;5.32;;;23.90;99.90;;;;;;5097633;28;20445;-27
2023/09/18 10:54:15;;;;;;;4.97;4.10;;;23.80;99.90;;;;;;5093807;28;20039;-28
2023/09/18 10:56:42;;;;;;;5.05;3.78;;;24.00;99.90;;;;;;5092029;28;20032;-28
2023/09/18 10:59:09;;;;;;;5.72;4.18;;;24.00;99.90;;;;;;5093825;28;20028;-30
2023/09/18 11:01:38;;;;;;;5.88;4.00;;;23.90;99.90;;;;;;5090874;28;20416;-31
2023/09/18 11:04:09;;;;;;;7.70;4.05;;;24.00;99.90;;;;;;5085696;28;20503;-29
2023/09/18 11:06:57;;;;;;;3.67;3.38;;;24.50;99.90;;;;;;5084558;28;20102;-29
2023/09/18 11:09:27;;;;;;;7.07;3.85;;;25.00;99.90;;;;;;5089889;28;20062;-28
2023/09/18 11:11:59;;;;;;;4.88;3.80;;;25.50;99.90;;;;;;5094048;28;20315;-31
2023/09/18 11:14:49;;;;;;;6.03;3.67;;;25.40;99.90;;;;;;5089737;28;20040;-27
2023/09/18 11:17:34;;;;;;;4.50;3.30;;;25.00;99.90;;;;;;5086757;28;20032;-28
2023/09/18 11:20:15;;;;;;;7.38;3.65;;;24.70;99.90;;;;;;5085917;28;20197;-26
2023/09/18 11:22:48;;;;;;;4.88;3.42;;;24.30;99.90;;;;;;5089124;28;20048;-27
2023/09/18 11:25:41;;;;;;;5.10;3.47;;;24.00;99.90;;;;;;5090161;28;20041;-26
2023/09/18 11:28:12;;;;;;;3.58;3.05;;;23.70;99.90;;;;;;5089888;28;20036;-29
2023/09/18 11:30:39;;;;;;;4.60;3.10;;;23.70;99.90;;;;;;5079861;28;20094;-26
2023/09/18 11:33:06;;;;;;;4.05;2.88;;;23.60;99.90;;;;;;5081886;28;20040;-29
2023/09/18 11:35:50;;;;;;;4.85;2.90;;;23.50;99.90;;;;;;5080527;28;20047;-27
2023/09/18 11:38:16;;;;;;;3.30;2.90;;;23.40;99.90;;;;;;5081322;28;20420;-27
2023/09/18 11:40:44;;;;;;;4.47;3.03;;;23.20;99.90;;;;;;5080977;28;20410;-27
2023/09/18 11:43:29;;;;;;;3.80;3.38;;;23.20;99.90;;;;;;5086051;28;20067;-28
2023/09/18 11:45:57;;;;;;;4.10;3.28;;;23.10;99.90;;;;;;5087626;28;20036;-28
2023/09/18 11:48:27;;;;;;;4.38;3.00;;;23.50;99.90;;;;;;5084661;28;20043;-29
2023/09/18 11:50:54;;;;;;;4.63;3.05;;;23.80;99.90;;;;;;5088813;28;20051;-28
2023/09/18 11:53:21;;;;;;;3.67;2.80;;;24.30;99.90;;;;;;5095045;28;20049;-28
2023/09/18 11:55:47;;;;;;;2.65;2.28;;;25.00;99.90;;;;;;5092629;28;20040;-28
2023/09/18 11:58:14;;;;;;;6.18;2.65;;;25.90;99.90;;;;;;5087680;28;20043;-29
2023/09/18 12:00:49;;;;;;;7.05;2.50;;;26.80;99.90;;;;;;5092536;28;20076;-29
2023/09/18 12:03:25;;;;;;;3.00;1.98;;;27.50;99.90;;;;;;5092780;28;20048;-27
2023/09/18 12:06:01;;;;;;;4.32;2.40;;;27.90;99.90;;;;;;5088564;28;20438;-27
2023/09/18 12:08:30;;;;;;;3.25;2.30;;;27.40;99.90;;;;;;5087616;28;20403;-27
2023/09/18 12:10:56;;;;;;;2.97;2.63;;;26.70;99.90;;;;;;5091515;28;20082;-27
2023/09/18 12:13:25;;;;;;;4.88;2.47;;;25.90;99.90;;;;;;5084261;28;20302;-29
2023/09/18 12:16:05;;;;;;;4.35;2.30;;;25.20;99.90;;;;;;5086533;28;20040;-29
2023/09/18 12:18:34;;;;;;;2.55;2.13;;;24.70;99.90;;;;;;5083211;28;20039;-27
2023/09/18 12:21:04;;;;;;;2.38;2.13;;;24.30;99.90;;;;;;5087326;28;20035;-29
2023/09/18 12:23:36;;;;;;;4.75;2.75;;;24.20;99.90;;;;;;5089072;28;20079;-31
2023/09/18 12:26:04;;;;;;;2.78;2.42;;;24.00;99.90;;;;;;5086419;28;20051;-27
2023/09/18 12:28:31;;;;;;;2.85;2.40;;;23.90;99.90;;;;;;5085516;28;20052;-28
2023/09/18 12:30:58;;;;;;;4.75;2.58;;;24.10;99.90;;;;;;5089277;28;20071;-27
2023/09/18 12:33:24;;;;;;;3.10;2.40;;;24.00;99.90;;;;;;5084539;28;20066;-28